Time;durP1;ratioP1;P1;durP2;ratioP2;P2;SDS_P1;SDS_P2;PMS_P1;PMS_P2;Temp;Humidity;BMP_temperature;BMP_pressure;BME280_temperature;BME280_humidity;BME280_pressure;Samples;Min_cycle;Max_cycle;Signal;HPM_P1;HPM_P2
2022/04/18 00:00:37;;;;;;;1.63;0.73;;;;;;;19.29;54.27;100605.47;5094509;28;20189;-62
2022/04/18 00:03:04;;;;;;;1.80;1.20;;;;;;;19.27;54.43;100610.72;5076151;28;20178;-62
2022/04/18 00:05:33;;;;;;;1.70;0.70;;;;;;;19.28;54.83;100606.69;5074789;28;20174;-62
2022/04/18 00:07:59;;;;;;;1.83;0.80;;;;;;;19.26;54.12;100597.63;5094192;28;20468;-62
2022/04/18 00:10:24;;;;;;;1.40;0.60;;;;;;;19.29;54.25;100599.72;5075985;28;20995;-62
2022/04/18 00:12:50;;;;;;;1.70;0.70;;;;;;;19.26;54.42;100600.47;5094029;28;20182;-62
2022/04/18 00:15:15;;;;;;;1.60;0.80;;;;;;;19.27;54.30;100593.53;5093994;28;20185;-62
2022/04/18 00:17:41;;;;;;;2.00;0.80;;;;;;;19.25;54.57;100584.50;5094062;28;20531;-62
2022/04/18 00:20:06;;;;;;;1.50;0.70;;;;;;;19.26;54.37;100580.44;5094019;28;20181;-62
2022/04/18 00:22:32;;;;;;;1.73;0.80;;;;;;;19.27;54.67;100581.28;5092802;28;20201;-62
2022/04/18 00:24:57;;;;;;;1.30;0.60;;;;;;;19.25;54.44;100584.50;5068150;28;20178;-62
2022/04/18 00:27:23;;;;;;;1.77;0.80;;;;;;;19.27;54.45;100582.09;5093852;28;20170;-62
2022/04/18 00:29:49;;;;;;;1.60;0.80;;;;;;;19.26;54.44;100577.56;5093536;28;20263;-63
2022/04/18 00:32:15;;;;;;;1.67;0.80;;;;;;;19.27;54.24;100576.38;5094112;28;20194;-62
2022/04/18 00:34:41;;;;;;;1.40;0.60;;;;;;;19.27;54.56;100570.63;5093658;28;20422;-62
2022/04/18 00:37:06;;;;;;;1.90;0.80;;;;;;;19.27;54.29;100575.56;5093888;28;20416;-62
2022/04/18 00:39:32;;;;;;;1.50;0.73;;;;;;;19.27;54.34;100582.09;5093657;28;20171;-62
2022/04/18 00:41:57;;;;;;;1.60;0.90;;;;;;;19.27;54.46;100575.56;5093630;28;20568;-62
2022/04/18 00:44:23;;;;;;;1.83;0.60;;;;;;;19.28;54.31;100577.19;5086505;28;20585;-62
2022/04/18 00:46:48;;;;;;;1.87;0.87;;;;;;;19.27;54.23;100582.09;5088394;28;20563;-62
2022/04/18 00:49:14;;;;;;;1.67;0.70;;;;;;;19.27;54.39;100566.97;5093340;28;20183;-62
2022/04/18 00:51:39;;;;;;;1.63;0.70;;;;;;;19.26;54.35;100565.31;5093494;28;20202;-62
2022/04/18 00:54:05;;;;;;;2.17;1.00;;;;;;;19.25;54.05;100567.34;5089887;28;20663;-63
2022/04/18 00:56:30;;;;;;;1.70;0.70;;;;;;;19.23;54.20;100569.78;5074606;28;20232;-62
2022/04/18 00:58:56;;;;;;;1.63;0.80;;;;;;;19.26;54.52;100568.19;5071616;28;20178;-62
2022/04/18 01:01:23;;;;;;;1.70;0.87;;;;;;;19.27;54.50;100564.91;5093419;28;20162;-62
2022/04/18 01:03:49;;;;;;;2.00;0.80;;;;;;;19.26;54.31;100557.53;5093525;28;20227;-62
2022/04/18 01:06:15;;;;;;;1.50;0.80;;;;;;;19.23;54.67;100549.72;5074473;28;20954;-62
2022/04/18 01:08:40;;;;;;;2.37;0.80;;;;;;;19.23;54.39;100557.47;5092254;28;20686;-62
2022/04/18 01:11:06;;;;;;;1.63;0.80;;;;;;;19.27;54.25;100546.94;5092849;28;20459;-62
2022/04/18 01:13:50;;;;;;;1.90;0.80;;;;;;;19.26;54.40;100539.56;5093271;28;20183;-62
2022/04/18 01:16:15;;;;;;;2.13;1.00;;;;;;;19.24;54.44;100542.78;5092473;28;20635;-62
2022/04/18 01:18:40;;;;;;;1.53;0.70;;;;;;;19.22;54.98;100528.00;5093135;28;20463;-62
2022/04/18 01:21:09;;;;;;;1.40;0.77;;;;;;;19.26;54.70;100543.22;5088721;28;20186;-62
2022/04/18 01:23:35;;;;;;;1.47;0.70;;;;;;;19.22;54.35;100539.47;5072641;28;20171;-62
2022/04/18 01:29:00;;;;;;;1.67;0.90;;;;;;;19.19;54.34;100525.91;5072684;28;20232;-62
2022/04/18 01:31:27;;;;;;;1.60;0.70;;;;;;;19.22;54.65;100525.16;5057034;28;20440;-62
2022/04/18 01:33:52;;;;;;;1.80;0.83;;;;;;;19.24;55.11;100524.78;5072644;28;20451;-62
2022/04/18 01:36:18;;;;;;;1.77;0.80;;;;;;;19.23;54.48;100532.56;5072098;28;20429;-62
2022/04/18 01:38:43;;;;;;;1.80;0.70;;;;;;;19.23;54.67;100535.41;5072448;28;20198;-62
2022/04/18 01:41:09;;;;;;;1.80;0.73;;;;;;;19.26;54.38;100528.09;5072166;28;20536;-62
2022/04/18 01:43:34;;;;;;;1.50;0.70;;;;;;;19.22;54.40;100530.88;5072270;28;20178;-62
2022/04/18 01:46:00;;;;;;;1.30;0.60;;;;;;;19.23;54.39;100523.13;5072185;28;20199;-62
2022/04/18 01:48:25;;;;;;;1.80;0.60;;;;;;;19.21;54.52;100520.59;5072237;28;20540;-62
2022/04/18 01:50:51;;;;;;;1.40;0.77;;;;;;;19.23;54.49;100523.97;5071652;28;20554;-62
2022/04/18 01:53:16;;;;;;;1.40;0.70;;;;;;;19.21;54.85;100517.75;5090146;28;20540;-62
2022/04/18 01:55:42;;;;;;;1.40;0.70;;;;;;;19.24;54.56;100521.91;5092220;28;20538;-62
2022/04/18 01:58:08;;;;;;;1.50;0.60;;;;;;;19.23;54.25;100521.09;5092319;28;20178;-62
2022/04/18 02:00:33;;;;;;;1.40;0.60;;;;;;;19.21;54.75;100520.59;5092117;28;20161;-62
2022/04/18 02:02:59;;;;;;;2.07;0.70;;;;;;;19.21;54.52;100517.75;5073963;28;20496;-62
2022/04/18 02:05:24;;;;;;;1.40;0.70;;;;;;;19.21;54.56;100514.06;5091873;28;20699;-62
2022/04/18 02:07:50;;;;;;;1.47;0.67;;;;;;;19.20;54.43;100518.13;5091894;28;20230;-62
2022/04/18 02:10:15;;;;;;;1.40;0.60;;;;;;;19.21;54.33;100520.59;5073722;28;20197;-62
2022/04/18 02:12:41;;;;;;;1.60;0.80;;;;;;;19.23;54.60;100511.69;5091644;28;20166;-62
2022/04/18 02:15:07;;;;;;;1.80;0.90;;;;;;;19.18;54.46;100515.66;5073780;28;20181;-62
2022/04/18 02:17:32;;;;;;;1.70;0.60;;;;;;;19.22;54.33;100513.69;5091815;28;20358;-62
2022/04/18 02:19:57;;;;;;;1.60;0.80;;;;;;;19.23;54.61;100511.69;5089986;28;20413;-62
2022/04/18 02:22:23;;;;;;;1.70;0.70;;;;;;;19.23;54.67;100511.69;5083170;28;20186;-62
2022/04/18 02:24:49;;;;;;;1.70;0.90;;;;;;;19.21;54.40;100514.06;5090417;28;20235;-61
2022/04/18 02:27:15;;;;;;;4.90;0.80;;;;;;;19.21;54.50;100508.34;5090042;28;20182;-61
2022/04/18 02:29:41;;;;;;;2.13;0.80;;;;;;;19.18;54.40;100498.50;5088811;28;20451;-61
2022/04/18 02:34:51;;;;;;;1.50;0.63;;;;;;;19.21;54.68;100519.81;5090228;28;20355;-62
2022/04/18 02:37:16;;;;;;;1.30;0.60;;;;;;;19.19;54.48;100511.59;5090168;28;20400;-62
2022/04/18 02:39:42;;;;;;;1.30;0.70;;;;;;;19.19;54.73;100516.47;5091299;28;20540;-62
2022/04/18 02:42:08;;;;;;;2.63;0.80;;;;;;;19.17;54.65;100516.84;5071519;28;20224;-62
2022/04/18 02:44:34;;;;;;;2.00;0.90;;;;;;;19.20;54.34;100515.25;5089914;28;20197;-62
2022/04/18 02:46:59;;;;;;;1.33;0.63;;;;;;;19.17;54.76;100508.25;5090350;28;20527;-62
2022/04/18 02:49:25;;;;;;;1.40;0.67;;;;;;;19.21;54.87;100514.88;5088379;28;20170;-62
2022/04/18 02:51:50;;;;;;;1.50;0.70;;;;;;;19.20;54.49;100513.22;5091427;28;20214;-62
2022/04/18 02:54:16;;;;;;;1.67;0.63;;;;;;;19.19;54.42;100508.72;5091061;28;20170;-62
2022/04/18 02:56:41;;;;;;;1.57;0.80;;;;;;;19.17;54.63;100505.41;5090567;28;20239;-62
2022/04/18 02:59:06;;;;;;;1.40;0.60;;;;;;;19.21;54.42;100506.28;5091043;28;20182;-62
2022/04/18 03:01:32;;;;;;;1.50;0.60;;;;;;;19.20;54.38;100496.06;5073093;28;20178;-62
2022/04/18 03:03:57;;;;;;;1.40;0.67;;;;;;;19.19;54.58;100494.41;5072834;28;20190;-62
2022/04/18 03:06:23;;;;;;;1.80;0.77;;;;;;;19.19;54.46;100499.28;5091163;28;20226;-62
2022/04/18 03:08:48;;;;;;;1.90;0.70;;;;;;;19.17;54.58;100496.81;5079301;28;20183;-62
2022/04/18 03:11:14;;;;;;;1.60;0.67;;;;;;;19.18;54.51;100492.75;5070960;28;20238;-62
2022/04/18 03:13:44;;;;;;;1.40;0.70;;;;;;;19.19;54.73;100494.41;5084441;28;20567;-62
2022/04/18 03:16:10;;;;;;;1.40;0.73;;;;;;;19.18;54.40;100484.19;5091008;28;20205;-62
2022/04/18 03:18:35;;;;;;;1.70;0.90;;;;;;;19.17;54.44;100491.09;5091319;28;20427;-62
2022/04/18 03:21:03;;;;;;;2.10;0.93;;;;;;;19.19;54.27;100493.56;5091233;28;20416;-62
2022/04/18 03:23:28;;;;;;;1.50;0.77;;;;;;;19.17;54.52;100491.09;5070145;28;20179;-62
2022/04/18 03:25:54;;;;;;;1.70;0.73;;;;;;;19.18;54.49;100484.19;5070883;28;20541;-62
2022/04/18 03:28:19;;;;;;;1.60;0.90;;;;;;;19.19;54.52;100485.81;5087654;28;20178;-62
2022/04/18 03:30:45;;;;;;;2.37;0.93;;;;;;;19.18;54.54;100478.47;5090843;28;20199;-62
2022/04/18 03:33:10;;;;;;;1.77;0.90;;;;;;;19.18;54.69;100475.59;5091323;28;20204;-62
2022/04/18 03:35:35;;;;;;;2.37;0.80;;;;;;;19.18;54.98;100475.59;5091118;28;20166;-62
2022/04/18 03:40:45;;;;;;;1.57;0.70;;;;;;;19.18;54.46;100475.59;5094362;28;20212;-62
2022/04/18 03:43:10;;;;;;;1.70;0.73;;;;;;;19.17;55.24;100479.63;5094904;28;20420;-62
2022/04/18 03:45:36;;;;;;;1.37;0.63;;;;;;;19.17;54.80;100473.09;5093905;28;20632;-62
2022/04/18 03:48:01;;;;;;;1.40;0.53;;;;;;;19.14;55.28;100465.28;5095436;28;20622;-62
2022/04/18 03:50:26;;;;;;;1.30;0.70;;;;;;;19.13;54.60;100473.06;5095146;28;20575;-62
2022/04/18 03:52:52;;;;;;;2.23;0.70;;;;;;;19.13;54.48;100464.47;5095214;28;20182;-62
2022/04/18 03:55:17;;;;;;;1.77;0.77;;;;;;;19.12;54.49;100462.78;5077009;28;20577;-62
2022/04/18 03:57:43;;;;;;;1.40;0.80;;;;;;;19.10;54.64;100459.50;5095075;28;20602;-62
2022/04/18 04:00:09;;;;;;;1.47;0.63;;;;;;;19.10;54.93;100452.94;5094203;28;20201;-62
2022/04/18 04:02:34;;;;;;;1.37;0.80;;;;;;;19.07;54.74;100457.38;5094369;28;20235;-62
2022/04/18 04:05:00;;;;;;;1.50;0.70;;;;;;;19.08;54.92;100463.94;5094288;28;20825;-62
2022/04/18 04:07:25;;;;;;;1.60;0.90;;;;;;;19.05;54.56;100448.34;5094183;28;20255;-62
2022/04/18 04:09:53;;;;;;;1.50;0.83;;;;;;;19.05;54.79;100462.66;5094066;28;20190;-62
2022/04/18 04:12:23;;;;;;;1.50;0.70;;;;;;;19.03;54.91;100456.50;5091018;28;20243;-62
2022/04/18 04:14:52;;;;;;;1.60;0.77;;;;;;;19.02;54.78;100449.09;5094264;28;20446;-62
2022/04/18 04:17:17;;;;;;;1.63;0.70;;;;;;;19.02;54.73;100449.09;5094000;28;20420;-62
2022/04/18 04:19:44;;;;;;;1.67;0.83;;;;;;;19.00;54.88;100451.53;5093998;28;20419;-62
2022/04/18 04:22:10;;;;;;;1.30;0.70;;;;;;;18.99;54.80;100457.63;5088295;28;20174;-62
2022/04/18 04:24:35;;;;;;;1.53;0.60;;;;;;;18.98;55.02;100451.09;5093903;28;20436;-62
2022/04/18 04:27:01;;;;;;;1.50;0.87;;;;;;;18.97;54.96;100458.00;5075664;28;20400;-62
2022/04/18 04:29:26;;;;;;;2.30;0.80;;;;;;;18.97;54.67;100457.19;5093834;28;20185;-61
2022/04/18 04:31:51;;;;;;;1.80;0.90;;;;;;;18.94;55.41;100453.06;5090849;28;20205;-62
2022/04/18 04:34:17;;;;;;;1.80;0.73;;;;;;;18.93;54.97;100454.28;5072487;28;20186;-62
2022/04/18 04:36:42;;;;;;;1.40;0.70;;;;;;;18.93;54.89;100451.41;5072144;28;20167;-62
2022/04/18 04:39:08;;;;;;;1.60;0.80;;;;;;;18.91;54.86;100448.09;5072942;28;20179;-62
2022/04/18 04:41:34;;;;;;;1.43;0.77;;;;;;;18.91;54.99;100456.66;5073436;28;20250;-62
2022/04/18 04:43:59;;;;;;;1.53;0.80;;;;;;;18.91;55.32;100458.72;5077946;28;20519;-62
2022/04/18 04:46:25;;;;;;;1.50;0.70;;;;;;;18.91;55.04;100450.13;5091731;28;20195;-62
2022/04/18 04:48:50;;;;;;;1.83;0.87;;;;;;;18.89;55.45;100449.69;5091173;28;20190;-62
2022/04/18 04:51:16;;;;;;;1.50;0.70;;;;;;;18.88;54.90;100456.59;5092828;28;20198;-62
2022/04/18 04:53:41;;;;;;;1.70;0.70;;;;;;;18.87;55.03;100452.09;5093277;28;20178;-62
2022/04/18 04:56:07;;;;;;;1.70;0.90;;;;;;;18.87;54.90;100454.97;5092974;28;20243;-62
2022/04/18 04:58:32;;;;;;;1.73;0.80;;;;;;;18.85;54.93;100457.34;5093219;28;20564;-62
2022/04/18 05:00:57;;;;;;;1.60;0.70;;;;;;;18.84;54.93;100453.69;5093317;28;20526;-62
2022/04/18 05:03:24;;;;;;;1.40;0.63;;;;;;;18.83;54.85;100452.03;5092810;28;20162;-62
2022/04/18 05:05:50;;;;;;;1.33;0.60;;;;;;;18.84;55.01;100449.97;5082231;28;20229;-62
2022/04/18 05:08:15;;;;;;;1.80;0.80;;;;;;;18.84;55.13;100447.97;5079639;28;20452;-62
2022/04/18 05:10:40;;;;;;;1.53;0.70;;;;;;;18.82;54.91;100447.50;5092894;28;20202;-62
2022/04/18 05:13:06;;;;;;;1.80;0.70;;;;;;;18.83;55.20;100452.03;5092917;28;20588;-62
2022/04/18 05:15:33;;;;;;;1.93;0.80;;;;;;;18.81;55.24;100451.56;5092756;28;20171;-62
2022/04/18 05:17:58;;;;;;;1.47;0.70;;;;;;;18.81;55.19;100453.63;5093044;28;20174;-62
2022/04/18 05:20:24;;;;;;;2.50;0.90;;;;;;;18.80;54.97;100449.09;5074490;28;21075;-62
2022/04/18 05:22:50;;;;;;;1.77;0.80;;;;;;;18.80;54.92;100446.22;5078526;28;20175;-62
2022/04/18 05:25:15;;;;;;;1.50;0.70;;;;;;;18.79;55.15;100445.41;5072324;28;20175;-62
2022/04/18 05:27:40;;;;;;;1.50;0.70;;;;;;;18.81;55.05;100450.75;5088541;28;20431;-62
2022/04/18 05:30:07;;;;;;;1.47;0.70;;;;;;;18.79;55.14;100448.28;5092792;28;20198;-62
2022/04/18 05:32:32;;;;;;;1.83;0.90;;;;;;;18.79;55.09;100445.41;5092749;28;20519;-62
2022/04/18 05:34:57;;;;;;;1.60;0.63;;;;;;;18.79;55.00;100445.41;5092506;28;20416;-62
2022/04/18 05:37:23;;;;;;;1.60;0.90;;;;;;;18.79;55.14;100444.56;5092520;28;20173;-62
2022/04/18 05:39:48;;;;;;;1.50;0.73;;;;;;;18.77;55.07;100444.94;5093013;28;20622;-62
2022/04/18 05:42:14;;;;;;;1.50;0.93;;;;;;;18.79;54.89;100445.41;5092437;28;20174;-62
2022/04/18 05:44:42;;;;;;;1.63;0.73;;;;;;;18.78;55.22;100449.50;5092206;28;20178;-62
2022/04/18 05:47:07;;;;;;;1.60;0.70;;;;;;;18.77;54.86;100450.66;5092442;28;20201;-62
2022/04/18 05:49:33;;;;;;;1.70;0.83;;;;;;;18.76;54.94;100446.16;5092237;28;20408;-62
2022/04/18 05:51:58;;;;;;;1.40;0.60;;;;;;;18.76;55.11;100457.59;5092392;28;20206;-62
2022/04/18 05:54:24;;;;;;;1.67;0.90;;;;;;;18.75;55.15;100447.38;5091862;28;20174;-62
2022/04/18 05:56:49;;;;;;;1.70;0.80;;;;;;;18.74;54.63;100451.44;5092405;28;20173;-62
2022/04/18 05:59:14;;;;;;;2.20;0.90;;;;;;;18.74;55.11;100454.31;5092053;28;20171;-62
2022/04/18 06:01:40;;;;;;;1.77;0.80;;;;;;;18.74;55.09;100460.03;5092218;28;20216;-62
2022/04/18 06:04:06;;;;;;;1.60;0.80;;;;;;;18.75;55.03;100458.81;5091200;28;20253;-62
2022/04/18 06:06:31;;;;;;;1.50;0.70;;;;;;;18.74;55.03;100464.91;5092049;28;20460;-62
2022/04/18 06:08:57;;;;;;;1.80;0.80;;;;;;;18.73;55.05;100463.25;5091853;28;20167;-62
2022/04/18 06:11:22;;;;;;;1.70;0.77;;;;;;;18.73;54.92;100468.97;5091821;28;20250;-62
2022/04/18 06:13:48;;;;;;;1.30;0.70;;;;;;;18.72;55.02;100473.84;5091738;28;20185;-62
2022/04/18 06:16:13;;;;;;;1.50;0.80;;;;;;;18.72;54.97;100473.84;5092179;28;20186;-62
2022/04/18 06:18:38;;;;;;;1.50;0.90;;;;;;;18.72;55.29;100484.50;5091866;28;20174;-62
2022/04/18 06:21:04;;;;;;;1.80;0.93;;;;;;;18.73;55.14;100474.69;5082570;28;20229;-62
2022/04/18 06:23:29;;;;;;;1.77;0.90;;;;;;;18.71;55.09;100474.25;5089249;28;20181;-62
2022/04/18 06:25:55;;;;;;;1.50;0.77;;;;;;;18.70;55.38;100484.03;5091599;28;20229;-62
2022/04/18 06:28:20;;;;;;;1.50;0.73;;;;;;;18.70;55.17;100473.41;5091696;28;20188;-62
2022/04/18 06:30:45;;;;;;;2.00;1.07;;;;;;;18.70;55.17;100476.28;5091679;28;20653;-62
2022/04/18 06:33:11;;;;;;;1.60;0.80;;;;;;;18.70;55.29;100481.16;5091526;28;20175;-62
2022/04/18 06:35:37;;;;;;;1.90;0.83;;;;;;;18.69;55.40;100479.50;5091738;28;20185;-62
2022/04/18 06:38:02;;;;;;;1.40;0.60;;;;;;;18.69;54.89;100473.78;5091552;28;20413;-62
2022/04/18 06:40:28;;;;;;;1.83;0.83;;;;;;;18.69;55.04;100471.78;5091128;28;20174;-62
2022/04/18 06:42:53;;;;;;;1.40;0.70;;;;;;;18.68;55.22;100472.16;5091662;28;20656;-62
2022/04/18 06:45:19;;;;;;;1.77;0.90;;;;;;;18.67;55.37;100467.63;5091487;28;20162;-62
2022/04/18 06:47:44;;;;;;;1.80;0.90;;;;;;;18.67;55.00;100474.16;5091666;28;20565;-62
2022/04/18 06:50:12;;;;;;;1.50;0.77;;;;;;;18.67;55.26;100465.59;5091138;28;20228;-62
2022/04/18 06:52:41;;;;;;;1.60;0.70;;;;;;;18.67;55.46;100470.50;5091577;28;20186;-62
2022/04/18 06:55:09;;;;;;;1.60;0.80;;;;;;;18.65;55.39;100465.16;5091258;28;20412;-62
2022/04/18 06:57:35;;;;;;;1.47;0.70;;;;;;;18.66;55.29;100466.00;5083013;28;20421;-62
2022/04/18 07:00:01;;;;;;;1.40;0.60;;;;;;;18.66;55.79;100463.13;5071160;28;20416;-62
2022/04/18 07:02:27;;;;;;;1.60;0.80;;;;;;;18.65;55.09;100464.31;5071202;28;20194;-62
2022/04/18 07:04:53;;;;;;;1.50;0.87;;;;;;;18.64;55.18;100466.34;5070987;28;20409;-62
2022/04/18 07:07:19;;;;;;;2.37;0.83;;;;;;;18.64;55.54;100459.81;5072044;28;20705;-62
2022/04/18 07:09:44;;;;;;;1.60;0.80;;;;;;;18.64;55.17;100463.50;5070288;28;20471;-62
2022/04/18 07:12:10;;;;;;;2.63;1.00;;;;;;;18.56;54.69;100458.03;5078918;28;20178;-62
2022/04/18 07:14:36;;;;;;;9.17;2.63;;;;;;;18.28;47.86;100457.38;5092357;28;20170;-62
2022/04/18 07:17:01;;;;;;;3.10;2.00;;;;;;;18.18;49.58;100453.09;5094920;28;20210;-62
2022/04/18 07:19:31;;;;;;;13.77;3.10;;;;;;;18.03;46.84;100456.84;5093035;28;20987;-64
2022/04/18 07:21:56;;;;;;;4.40;2.97;;;;;;;18.17;47.31;100462.03;5084226;28;20265;-63
2022/04/18 07:24:23;;;;;;;5.70;2.90;;;;;;;18.24;47.23;100463.03;5074841;28;20555;-63
2022/04/18 07:26:48;;;;;;;6.53;3.27;;;;;;;18.37;46.17;100458.03;5088651;28;20695;-63
2022/04/18 07:29:14;;;;;;;16.60;3.00;;;;;;;18.39;46.05;100462.16;5085011;28;20417;-63
2022/04/18 07:31:40;;;;;;;12.13;3.17;;;;;;;18.43;47.04;100457.34;5071624;28;20626;-63
2022/04/18 07:34:05;;;;;;;11.60;3.33;;;;;;;18.40;47.36;100455.22;5082150;28;20178;-63
2022/04/18 07:36:31;;;;;;;5.50;3.30;;;;;;;18.42;47.82;100454.88;5092601;28;20166;-64
2022/04/18 07:38:56;;;;;;;5.70;2.90;;;;;;;18.45;46.12;100452.06;5093332;28;20159;-64
2022/04/18 07:41:23;;;;;;;12.33;3.57;;;;;;;18.61;48.41;100455.66;5088562;28;20179;-64
2022/04/18 07:43:49;;;;;;;14.23;5.30;;;;;;;18.87;50.59;100452.91;5081538;28;20171;-64
2022/04/18 07:46:17;;;;;;;6.80;3.97;;;;;;;18.94;49.64;100463.66;5072768;28;20845;-64
2022/04/18 07:48:43;;;;;;;7.17;2.97;;;;;;;18.82;49.32;100455.28;5074912;28;20269;-64
2022/04/18 07:53:53;;;;;;;9.53;3.20;;;;;;;18.81;47.92;100454.44;5094404;28;20404;-64
2022/04/18 07:56:20;;;;;;;4.93;2.83;;;;;;;18.81;47.23;100445.84;5092890;28;20404;-64
2022/04/18 07:58:46;;;;;;;5.13;2.90;;;;;;;18.78;47.08;100443.78;5073321;28;20182;-64
2022/04/18 08:01:11;;;;;;;6.30;2.57;;;;;;;18.77;47.02;100453.53;5075731;28;20445;-64
2022/04/18 08:03:37;;;;;;;4.77;2.70;;;;;;;18.79;46.33;100445.41;5076753;28;20797;-64
2022/04/18 08:06:02;;;;;;;5.43;2.87;;;;;;;18.84;45.41;100445.09;5084272;28;20170;-64
2022/04/18 08:08:28;;;;;;;5.80;3.00;;;;;;;18.86;46.05;100448.41;5070608;28;20184;-64
2022/04/18 08:10:53;;;;;;;7.47;3.10;;;;;;;18.86;45.50;100451.25;5055285;28;20206;-64
2022/04/18 08:13:18;;;;;;;6.53;2.97;;;;;;;18.84;45.40;100444.25;5057088;28;20615;-64
2022/04/18 08:15:44;;;;;;;6.10;2.80;;;;;;;18.82;45.22;100456.09;5053632;28;20179;-64
2022/04/18 08:18:09;;;;;;;4.13;2.73;;;;;;;18.83;45.27;100457.75;5037339;28;20950;-65
2022/04/18 08:20:35;;;;;;;8.03;3.00;;;;;;;18.84;45.11;100453.69;5036582;28;20188;-64
2022/04/18 08:23:00;;;;;;;4.60;2.97;;;;;;;18.84;45.04;100450.81;5070029;28;20283;-64
2022/04/18 08:25:26;;;;;;;4.53;2.80;;;;;;;18.85;44.79;100452.47;5072729;28;20186;-63
2022/04/18 08:27:51;;;;;;;9.73;3.70;;;;;;;18.95;46.57;100454.72;5061312;28;20206;-64
2022/04/18 08:30:17;;;;;;;7.13;2.80;;;;;;;18.95;45.67;100460.44;5038935;28;20207;-64
2022/04/18 08:32:42;;;;;;;4.90;3.03;;;;;;;18.90;45.53;100454.19;5068985;28;20179;-64
2022/04/18 08:35:08;;;;;;;6.87;2.90;;;;;;;18.92;45.35;100457.50;5072509;28;20231;-64
2022/04/18 08:37:34;;;;;;;6.33;2.73;;;;;;;18.93;45.23;100454.28;5071063;28;20183;-64
2022/04/18 08:40:01;;;;;;;4.57;2.43;;;;;;;18.92;45.10;100455.47;5073270;28;20401;-64
2022/04/18 08:42:26;;;;;;;8.70;2.83;;;;;;;18.93;44.56;100453.44;5052529;28;20433;-64
2022/04/18 08:44:52;;;;;;;9.43;3.07;;;;;;;18.95;44.79;100451.00;5035150;28;20568;-64
2022/04/18 08:52:47;;;;;;;6.17;2.30;;;;;;;19.01;45.26;100450.31;5066724;28;20482;-64
2022/04/18 08:55:13;;;;;;;8.17;3.37;;;;;;;18.94;45.16;100450.19;5072079;28;20849;-64
2022/04/18 08:57:39;;;;;;;4.60;2.47;;;;;;;18.93;44.84;100444.84;5071140;28;20221;-64
2022/04/18 09:00:06;;;;;;;8.37;3.00;;;;;;;18.91;44.90;100453.81;5052281;28;20289;-65
2022/04/18 09:02:32;;;;;;;6.63;2.60;;;;;;;18.92;44.82;100444.00;5053225;28;20954;-65
2022/04/18 09:04:57;;;;;;;5.70;2.70;;;;;;;18.93;44.94;100442.84;5055772;28;20422;-65
2022/04/18 09:07:23;;;;;;;4.77;2.50;;;;;;;18.91;44.55;100442.38;5068081;28;20266;-65
2022/04/18 09:09:54;;;;;;;8.00;2.40;;;;;;;18.94;44.65;100437.91;5053089;28;20183;-65
2022/04/18 09:12:21;;;;;;;4.03;2.50;;;;;;;18.94;44.62;100435.91;5032249;28;20163;-65
2022/04/18 09:14:50;;;;;;;4.20;2.47;;;;;;;18.97;44.49;100442.91;5072754;28;20405;-65
2022/04/18 09:17:35;;;;;;;4.73;3.20;;;;;;;18.94;44.37;100447.34;5057055;28;20428;-64
2022/04/18 09:20:10;;;;;;;3.00;1.90;;;;;;;18.95;44.46;100433.84;5051046;28;20410;-64
2022/04/18 09:22:46;;;;;;;3.90;2.03;;;;;;;18.92;44.32;100428.91;5066679;28;20980;-64
2022/04/18 09:25:21;;;;;;;6.13;2.97;;;;;;;18.88;44.34;100431.69;5092279;28;20699;-64
2022/04/18 09:27:56;;;;;;;5.40;2.43;;;;;;;18.88;44.10;100431.69;5058585;28;20479;-64
2022/04/18 09:30:21;;;;;;;4.80;2.80;;;;;;;18.86;44.33;100427.56;5064351;28;20783;-64
2022/04/18 09:33:01;;;;;;;4.47;2.23;;;;;;;18.87;44.27;100417.78;5052499;28;20418;-64
2022/04/18 09:35:26;;;;;;;4.53;2.90;;;;;;;18.85;44.61;100420.16;5035101;28;20158;-64
2022/04/18 09:37:53;;;;;;;4.17;2.30;;;;;;;18.85;44.24;100423.88;5034452;28;20800;-64
2022/04/18 09:40:22;;;;;;;6.90;2.77;;;;;;;18.87;44.35;100412.06;5034076;28;20172;-61
2022/04/18 09:42:51;;;;;;;4.23;2.70;;;;;;;18.83;44.51;100412.00;5062730;28;20426;-63
2022/04/18 09:45:17;;;;;;;5.40;2.73;;;;;;;18.81;44.88;100417.25;5072190;28;20967;-61
2022/04/18 09:47:43;;;;;;;4.93;2.00;;;;;;;18.76;44.86;100413.91;5053902;28;20421;-60
2022/04/18 09:53:05;;;;;;;5.37;2.57;;;;;;;18.75;44.71;100410.19;5054527;28;20190;-61
2022/04/18 09:55:30;;;;;;;4.10;2.50;;;;;;;18.73;44.28;100406.06;5071595;28;20433;-61
2022/04/18 09:58:02;;;;;;;6.30;2.40;;;;;;;18.71;44.34;100402.75;5077613;28;20229;-61
2022/04/18 10:00:28;;;;;;;6.37;2.60;;;;;;;18.71;43.86;100397.84;5070801;28;20212;-61
2022/04/18 10:02:53;;;;;;;4.00;2.60;;;;;;;18.71;43.27;100399.91;5070323;28;20492;-59
2022/04/18 10:05:19;;;;;;;4.70;3.03;;;;;;;18.70;42.96;100398.22;5070229;28;20175;-61
2022/04/18 10:07:45;;;;;;;4.33;2.63;;;;;;;18.69;42.69;100397.41;5051753;28;20215;-61
2022/04/18 10:10:12;;;;;;;5.40;3.20;;;;;;;18.69;42.04;100396.56;5033709;28;20240;-61
2022/04/18 10:12:38;;;;;;;5.50;2.90;;;;;;;18.75;42.29;100393.03;5017034;28;20457;-60
2022/04/18 10:15:03;;;;;;;5.27;2.80;;;;;;;18.77;42.33;100399.19;5051686;28;20959;-61
2022/04/18 10:17:29;;;;;;;4.03;2.80;;;;;;;18.82;42.63;100393.16;5065454;28;20213;-61
2022/04/18 10:19:54;;;;;;;8.10;3.13;;;;;;;18.85;43.15;100389.53;5071905;28;20159;-60
2022/04/18 10:22:57;;;;;;;6.87;2.87;;;;;;;18.86;43.52;100385.47;5060933;28;20196;-61
2022/04/18 10:25:45;;;;;;;4.87;3.07;;;;;;;18.86;43.92;100385.47;5054060;28;20283;-61
2022/04/18 10:28:17;;;;;;;6.07;3.07;;;;;;;18.87;43.88;100384.25;5069578;28;20401;-61
2022/04/18 10:30:57;;;;;;;5.30;2.53;;;;;;;18.82;44.20;100376.00;5066049;28;20479;-61
2022/04/18 10:33:23;;;;;;;7.33;2.80;;;;;;;18.84;44.19;100372.75;5069672;28;20447;-61
2022/04/18 10:35:55;;;;;;;5.30;3.03;;;;;;;18.80;44.75;100366.97;5060359;28;20438;-61
2022/04/18 10:38:24;;;;;;;5.00;3.03;;;;;;;18.83;45.03;100359.66;5049183;28;20708;-61
2022/04/18 10:40:50;;;;;;;7.80;2.80;;;;;;;18.79;45.47;100358.78;5053227;28;20784;-61
2022/04/18 10:43:15;;;;;;;5.57;2.90;;;;;;;18.78;45.64;100352.25;5065369;28;20437;-60
2022/04/18 10:45:41;;;;;;;3.97;2.70;;;;;;;18.79;45.82;100348.16;5049633;28;20551;-61
2022/04/18 10:48:10;;;;;;;3.93;2.60;;;;;;;18.78;45.53;100346.53;5031930;28;20183;-62
2022/04/18 10:50:40;;;;;;;5.70;3.17;;;;;;;18.79;45.41;100341.59;5040162;28;20278;-61
2022/04/18 10:53:07;;;;;;;3.57;2.50;;;;;;;18.80;45.77;100338.38;5072366;28;20479;-61
2022/04/18 10:55:32;;;;;;;5.70;3.23;;;;;;;18.77;45.26;100339.13;5071044;28;20953;-61
2022/04/18 10:58:21;;;;;;;7.27;3.23;;;;;;;18.77;45.30;100338.31;5065306;28;20428;-60
2022/04/18 11:00:49;;;;;;;7.47;3.00;;;;;;;18.72;44.88;100333.72;5025687;28;20241;-61
2022/04/18 11:03:38;;;;;;;7.33;3.10;;;;;;;18.74;44.91;100334.19;5057157;28;20482;-61
2022/04/18 11:06:16;;;;;;;5.00;2.97;;;;;;;18.74;44.59;100327.63;5054452;28;20413;-62
2022/04/18 11:08:42;;;;;;;6.53;3.17;;;;;;;18.74;44.24;100327.63;5093939;28;20420;-61
2022/04/18 11:11:16;;;;;;;8.83;3.47;;;;;;;18.72;43.87;100322.28;5087585;28;20468;-60
2022/04/18 11:13:48;;;;;;;5.57;3.23;;;;;;;18.70;43.74;100319.00;5092199;28;20170;-61
2022/04/18 11:16:42;;;;;;;6.93;2.87;;;;;;;18.71;43.28;100320.63;5088339;28;20787;-62
2022/04/18 11:19:14;;;;;;;5.03;3.17;;;;;;;18.73;43.24;100314.53;5092376;28;20408;-62
2022/04/18 11:21:55;;;;;;;5.10;3.07;;;;;;;18.76;42.76;100319.50;5086567;28;20424;-61
2022/04/18 11:24:40;;;;;;;9.37;3.27;;;;;;;18.82;42.71;100313.06;5092822;28;20428;-62
2022/04/18 11:27:22;;;;;;;6.40;2.90;;;;;;;18.93;42.60;100310.38;5088632;28;20435;-61
2022/04/18 11:29:57;;;;;;;5.20;3.40;;;;;;;19.02;42.22;100306.03;5092901;28;20793;-61
2022/04/18 11:32:27;;;;;;;7.03;3.17;;;;;;;19.20;41.52;100301.44;5093641;28;20484;-61
2022/04/18 11:34:53;;;;;;;7.53;3.77;;;;;;;19.27;41.67;100300.75;5089737;28;20416;-60
2022/04/18 11:37:25;;;;;;;5.90;2.77;;;;;;;19.14;41.98;100300.13;5074236;28;20425;-61
2022/04/18 11:39:51;;;;;;;8.83;3.40;;;;;;;19.13;42.14;100298.47;5093173;28;20463;-61
2022/04/18 11:42:21;;;;;;;6.27;3.47;;;;;;;19.05;42.57;100302.44;5085668;28;20437;-62